This is the latest recevied weather packets stored in our database for station/object IK0OZB-10. If no packets are shown the sender has not sent any weather packets the latest 10 day(s).
| Time | Temp. | Humidity | Pressure | Rain* | Wind** | Luminosity | Snow |
|---|---|---|---|---|---|---|---|
| 1777346870 | 15° C | 74% | 1016.3 hPa | - | - | - | - |
| 1777345970 | 15.56° C | 73% | 1016.3 hPa | - | - | - | - |
| 1777345070 | 15° C | 74% | 1016.3 hPa | - | - | - | - |
| 1777343269 | 15.56° C | 72% | 1016.5 hPa | - | - | - | - |
| 1777342369 | 15.56° C | 71% | 1016.5 hPa | - | - | - | - |
| 1777339668 | 15.56° C | 69% | 1016.8 hPa | - | - | - | - |
| 1777338768 | 15.56° C | 69% | 1016.9 hPa | - | - | - | - |
| 1777336068 | 16.11° C | 66% | 1016.9 hPa | - | - | - | - |
| 1777335168 | 16.67° C | 66% | 1017 hPa | - | - | - | - |
| 1777312660 | 21.67° C | 55% | 1016.6 hPa | - | - | - | - |
| 1777310859 | 23.33° C | 52% | 1016.4 hPa | - | - | - | - |
| 1777309059 | 25° C | 48% | 1016.3 hPa | - | - | - | - |
| 1777307259 | 31.67° C | 37% | 1016.5 hPa | - | - | - | - |
| 1777306359 | 34.44° C | 32% | 1016.5 hPa | - | - | - | - |
| 1777305459 | 34.44° C | 32% | 1016.6 hPa | - | - | - | - |
| 1777300058 | 35° C | 34% | 1017.3 hPa | - | - | - | - |
| 1777299158 | 35° C | 35% | 1017.4 hPa | - | - | - | - |
| 1777296457 | 34.44° C | 38% | 1018 hPa | - | - | - | - |
| 1777295557 | 32.22° C | 41% | 1018 hPa | - | - | - | - |
| 1777294657 | 30.56° C | 44% | 1018.2 hPa | - | - | - | - |
| 1777292857 | 27.22° C | 51% | 1018.7 hPa | - | - | - | - |
| 1777291956 | 23.33° C | 60% | 1018.8 hPa | - | - | - | - |
| 1777289256 | 21.11° C | 66% | 1019.2 hPa | - | - | - | - |
| 1777288356 | 21.11° C | 66% | 1019.4 hPa | - | - | - | - |
| 1777287456 | 21.11° C | 66% | 1019.5 hPa | - | - | - | - |
* Rain since midnight (hover to see other rain measurements)
** Current wind speed in m/s (hover to see current wind gust speed)